createdAt,value
2022-11-16T00:02:13.388Z,99387.91
2022-11-16T00:04:40.402Z,99393.06
2022-11-16T00:07:07.360Z,99394.63
2022-11-16T00:09:34.122Z,99386.38
2022-11-16T00:12:03.393Z,99393.44
2022-11-16T00:14:34.762Z,99389.31
2022-11-16T00:17:02.313Z,99383.75
2022-11-16T00:19:29.539Z,99385.84
2022-11-16T00:21:56.597Z,99389.31
2022-11-16T00:24:23.883Z,99384.13
2022-11-16T00:26:51.078Z,99388.50
2022-11-16T00:29:20.921Z,99393.44
2022-11-16T00:31:48.783Z,99392.78
2022-11-16T00:34:15.921Z,99389.72
2022-11-16T00:36:42.600Z,99392.22
2022-11-16T00:39:13.623Z,99390.00
2022-11-16T00:41:41.392Z,99382.59
2022-11-16T00:44:09.218Z,99376.19
2022-11-16T00:46:36.431Z,99379.41
2022-11-16T00:49:05.592Z,99375.03
2022-11-16T00:51:33.041Z,99373.50
2022-11-16T00:54:00.038Z,99368.81
2022-11-16T00:56:27.233Z,99375.34
2022-11-16T00:58:53.760Z,99369.97
2022-11-16T01:01:20.457Z,99371.72
2022-11-16T01:03:48.011Z,99374.47
2022-11-16T01:06:15.973Z,99372.28
2022-11-16T01:08:43.771Z,99372.88
2022-11-16T01:11:32.573Z,99366.00
2022-11-16T01:14:02.478Z,99366.03
2022-11-16T01:16:29.140Z,99351.53
2022-11-16T01:18:55.765Z,99356.28
2022-11-16T01:21:23.590Z,99352.19
2022-11-16T01:23:50.820Z,99360.47
2022-11-16T01:26:17.585Z,99356.16
2022-11-16T01:28:44.412Z,99359.00
2022-11-16T01:31:12.689Z,99358.63
2022-11-16T01:33:40.568Z,99353.13
2022-11-16T01:36:17.246Z,99360.47
2022-11-16T01:38:46.079Z,99363.44
2022-11-16T01:41:20.525Z,99369.59
2022-11-16T01:44:14.863Z,99361.03
2022-11-16T01:46:52.895Z,99363.06
2022-11-16T01:49:23.984Z,99353.34
2022-11-16T01:51:58.633Z,99353.34
2022-11-16T01:54:27.387Z,99350.66
2022-11-16T01:57:00.404Z,99344.28
2022-11-16T01:59:35.847Z,99345.31
2022-11-16T02:02:03.935Z,99348.72
2022-11-16T02:04:32.274Z,99343.91
2022-11-16T02:07:15.580Z,99347.13
2022-11-16T02:10:09.406Z,99344.16
2022-11-16T02:12:57.830Z,99350.41
2022-11-16T02:15:51.792Z,99342.06
2022-11-16T02:18:48.383Z,99338.56
2022-11-16T02:21:15.517Z,99340.81
2022-11-16T02:23:51.414Z,99345.81
2022-11-16T02:26:47.889Z,99338.50
2022-11-16T02:29:20.210Z,99350.44
2022-11-16T02:32:04.620Z,99345.25
2022-11-16T02:34:37.564Z,99334.41
2022-11-16T02:37:07.638Z,99334.31
2022-11-16T02:39:37.825Z,99338.00
2022-11-16T02:42:08.395Z,99346.38
2022-11-16T02:44:40.281Z,99341.16
2022-11-16T02:47:13.451Z,99347.31
2022-11-16T02:49:48.094Z,99350.44
2022-11-16T02:52:16.070Z,99363.16
2022-11-16T02:54:42.596Z,99354.75
2022-11-16T02:57:09.371Z,99352.34
2022-11-16T02:59:41.579Z,99350.09
2022-11-16T03:02:34.506Z,99333.00
2022-11-16T03:05:09.746Z,99324.28
2022-11-16T03:07:48.062Z,99315.72
2022-11-16T03:10:37.660Z,99310.34
2022-11-16T03:13:10.704Z,99311.09
2022-11-16T03:15:41.235Z,99311.34
2022-11-16T03:18:14.276Z,99310.31
2022-11-16T03:20:43.744Z,99315.13
2022-11-16T03:23:12.082Z,99304.69
2022-11-16T03:25:49.455Z,99311.34
2022-11-16T03:28:33.007Z,99311.84
2022-11-16T03:31:11.298Z,99313.63
2022-11-16T03:33:45.216Z,99329.22
2022-11-16T03:36:23.591Z,99335.47
2022-11-16T03:38:52.782Z,99340.81
2022-11-16T03:41:22.943Z,99348.28
2022-11-16T03:43:50.564Z,99341.91
2022-11-16T03:46:18.076Z,99339.06
2022-11-16T03:48:45.511Z,99338.13
2022-11-16T03:51:20.625Z,99364.81
2022-11-16T03:53:47.269Z,99348.66
2022-11-16T03:56:14.542Z,99340.81
2022-11-16T03:58:41.143Z,99339.06
2022-11-16T04:01:07.965Z,99338.16
2022-11-16T04:03:35.098Z,99333.63
2022-11-16T04:06:20.351Z,99334.56
2022-11-16T04:09:05.502Z,99339.06
2022-11-16T04:11:50.703Z,99337.03
2022-11-16T04:14:41.471Z,99364.47
2022-11-16T04:17:35.684Z,99336.75
2022-11-16T04:20:22.152Z,99353.56
2022-11-16T04:23:14.238Z,99367.00
2022-11-16T04:25:43.560Z,99354.28
2022-11-16T04:28:19.821Z,99354.75
2022-11-16T04:31:17.129Z,99347.72
2022-11-16T04:34:09.390Z,99368.72
2022-11-16T04:36:54.996Z,99357.06
2022-11-16T04:39:21.948Z,99370.41
2022-11-16T04:42:07.205Z,99370.97
2022-11-16T04:44:54.757Z,99374.25
2022-11-16T04:47:23.952Z,99363.72
2022-11-16T04:49:51.625Z,99365.69
2022-11-16T04:52:18.265Z,99364.03
2022-11-16T04:54:45.313Z,99367.72
2022-11-16T04:57:12.524Z,99365.47
2022-11-16T04:59:39.646Z,99359.09
2022-11-16T05:02:09.980Z,99364.59
2022-11-16T05:04:50.626Z,99363.22
2022-11-16T05:07:18.092Z,99365.63
2022-11-16T05:09:52.890Z,99374.03
2022-11-16T05:12:22.695Z,99377.44
2022-11-16T05:14:55.174Z,99376.63
2022-11-16T05:17:25.443Z,99373.41
2022-11-16T05:20:11.204Z,99375.78
2022-11-16T05:22:52.978Z,99379.41
2022-11-16T05:25:19.744Z,99377.38
2022-11-16T05:27:52.140Z,99375.69
2022-11-16T05:30:19.028Z,99367.41
2022-11-16T05:32:59.996Z,99362.00
2022-11-16T05:35:27.735Z,99363.06
2022-11-16T05:37:54.583Z,99372.59
2022-11-16T05:40:22.414Z,99374.41
2022-11-16T05:42:57.821Z,99379.41
2022-11-16T05:45:26.036Z,99379.84
2022-11-16T05:47:53.013Z,99383.84
2022-11-16T05:50:20.321Z,99385.22
2022-11-16T05:52:59.840Z,99385.78
2022-11-16T05:55:26.400Z,99376.19
2022-11-16T05:57:53.006Z,99383.66
2022-11-16T06:00:22.736Z,99381.94
2022-11-16T06:02:54.517Z,99383.47
2022-11-16T06:05:26.179Z,99377.00
2022-11-16T06:07:54.197Z,99382.09
2022-11-16T06:10:21.357Z,99389.84
2022-11-16T06:12:49.779Z,99386.06
2022-11-16T06:15:17.595Z,99393.19
2022-11-16T06:17:44.263Z,99390.00
2022-11-16T06:20:11.938Z,99391.09
2022-11-16T06:22:39.265Z,99388.91
2022-11-16T06:25:10.955Z,99393.78
2022-11-16T06:27:44.296Z,99406.47
2022-11-16T06:30:14.567Z,99410.44
2022-11-16T06:32:42.798Z,99409.16
2022-11-16T06:35:18.326Z,99416.09
2022-11-16T06:37:58.370Z,99408.97
2022-11-16T06:40:33.127Z,99408.56
2022-11-16T06:43:01.521Z,99410.47
2022-11-16T06:45:28.414Z,99409.34
2022-11-16T06:47:57.172Z,99411.16
2022-11-16T06:50:23.853Z,99417.53
2022-11-16T06:52:50.661Z,99426.09
2022-11-16T06:55:18.418Z,99433.09
2022-11-16T06:58:08.398Z,99431.06
2022-11-16T07:00:35.066Z,99425.16
2022-11-16T07:03:03.435Z,99429.09
2022-11-16T07:05:31.566Z,99431.53
2022-11-16T07:08:08.382Z,99435.97
2022-11-16T07:10:35.095Z,99437.66
2022-11-16T07:13:03.704Z,99431.38
2022-11-16T07:15:31.300Z,99435.16
2022-11-16T07:18:06.467Z,99434.28
2022-11-16T07:20:35.176Z,99440.94
2022-11-16T07:23:03.682Z,99438.16
2022-11-16T07:25:33.432Z,99439.44
2022-11-16T07:28:10.193Z,99450.31
2022-11-16T07:31:24.991Z,99440.47
2022-11-16T07:37:12.872Z,99453.31
2022-11-16T07:39:47.422Z,99457.25
2022-11-16T07:42:14.745Z,99460.22
2022-11-16T07:44:52.248Z,99468.13
2022-11-16T07:47:19.994Z,99473.28
2022-11-16T07:49:48.921Z,99479.56
2022-11-16T07:52:20.568Z,99476.28
2022-11-16T07:55:09.945Z,99477.56
2022-11-16T07:57:57.048Z,99477.41
2022-11-16T08:00:26.660Z,99483.78
2022-11-16T08:03:02.771Z,99489.53
2022-11-16T08:05:30.004Z,99492.03
2022-11-16T08:07:56.649Z,99502.06
2022-11-16T08:10:25.047Z,99506.41
2022-11-16T08:12:51.961Z,99515.88
2022-11-16T08:15:20.027Z,99510.63
2022-11-16T08:17:46.770Z,99516.38
2022-11-16T08:20:16.653Z,99517.63
2022-11-16T08:22:45.256Z,99511.88
2022-11-16T08:25:12.359Z,99513.31
2022-11-16T08:27:50.866Z,99510.59
2022-11-16T08:30:20.265Z,99506.28
2022-11-16T08:32:50.000Z,99500.88
2022-11-16T08:35:16.720Z,99501.19
2022-11-16T08:37:44.755Z,99496.00
2022-11-16T08:40:12.108Z,99501.09
2022-11-16T08:42:43.624Z,99504.38
2022-11-16T08:45:11.318Z,99520.03
2022-11-16T08:47:39.161Z,99512.44
2022-11-16T08:50:07.708Z,99512.53
2022-11-16T08:52:35.016Z,99516.00
2022-11-16T08:55:05.543Z,99512.56
2022-11-16T08:57:35.708Z,99521.16
2022-11-16T09:00:10.730Z,99519.56
2022-11-16T09:02:37.962Z,99519.38
2022-11-16T09:05:05.440Z,99516.97
2022-11-16T09:07:32.075Z,99510.59
2022-11-16T09:09:58.631Z,99517.16
2022-11-16T09:12:25.274Z,99525.34
2022-11-16T09:14:52.008Z,99519.13
2022-11-16T09:17:22.895Z,99518.78
2022-11-16T09:19:49.992Z,99532.03
2022-11-16T09:22:16.656Z,99525.44
2022-11-16T09:24:46.417Z,99523.75
2022-11-16T09:27:16.608Z,99527.44
2022-11-16T09:29:43.234Z,99525.09
2022-11-16T09:32:09.867Z,99517.97
2022-11-16T09:34:36.591Z,99517.75
2022-11-16T09:37:04.870Z,99514.31
2022-11-16T09:39:32.490Z,99525.34
2022-11-16T09:42:37.547Z,99516.78
2022-11-16T09:45:15.321Z,99526.63
2022-11-16T09:47:51.801Z,99525.09
2022-11-16T09:50:42.325Z,99524.94
2022-11-16T09:54:03.470Z,99529.91
2022-11-16T09:56:35.348Z,99532.66
2022-11-16T09:59:07.781Z,99527.00
2022-11-16T10:01:52.804Z,99529.88
2022-11-16T10:04:43.776Z,99528.63
2022-11-16T10:07:35.583Z,99529.25
2022-11-16T10:10:02.221Z,99538.13
2022-11-16T10:12:48.809Z,99529.09
2022-11-16T10:16:00.331Z,99533.06
2022-11-16T10:18:58.374Z,99522.25
2022-11-16T10:21:37.247Z,99505.81
2022-11-16T10:24:25.126Z,99508.47
2022-11-16T10:27:07.045Z,99506.63
2022-11-16T10:29:55.390Z,99506.97
2022-11-16T10:32:29.652Z,99506.50
2022-11-16T10:35:05.987Z,99509.53
2022-11-16T10:37:36.649Z,99505.81
2022-11-16T10:40:17.249Z,99499.84
2022-11-16T10:42:46.700Z,99492.53
2022-11-16T10:45:51.108Z,99489.56
2022-11-16T10:48:38.561Z,99487.19
2022-11-16T10:51:07.525Z,99491.78
2022-11-16T10:53:39.288Z,99482.72
2022-11-16T10:56:21.008Z,99477.84
2022-11-16T10:59:02.849Z,99479.88
2022-11-16T11:01:58.715Z,99484.47
2022-11-16T11:04:32.641Z,99481.31
2022-11-16T11:07:29.091Z,99474.44
2022-11-16T11:09:55.868Z,99470.69
2022-11-16T11:12:45.091Z,99469.63
2022-11-16T11:15:26.213Z,99463.19
2022-11-16T11:18:14.998Z,99470.94
2022-11-16T11:20:45.426Z,99455.03
2022-11-16T11:23:54.723Z,99452.38
2022-11-16T11:26:29.370Z,99456.06
2022-11-16T11:29:01.196Z,99461.72
2022-11-16T11:31:35.575Z,99456.34
2022-11-16T11:34:21.887Z,99455.88
2022-11-16T11:37:25.564Z,99462.00
2022-11-16T11:40:26.104Z,99468.16
2022-11-16T11:43:01.674Z,99472.16
2022-11-16T11:45:52.763Z,99462.97
2022-11-16T11:49:11.551Z,99455.03
2022-11-16T11:51:41.331Z,99451.78
2022-11-16T11:54:24.819Z,99446.34
2022-11-16T11:56:51.536Z,99440.06
2022-11-16T11:59:25.036Z,99437.97
2022-11-16T12:02:00.882Z,99431.53
2022-11-16T12:04:42.851Z,99427.88
2022-11-16T12:07:18.562Z,99428.31
2022-11-16T12:10:12.474Z,99436.38
2022-11-16T12:13:10.197Z,99428.31
2022-11-16T12:16:01.204Z,99422.81
2022-11-16T12:18:47.814Z,99415.00
2022-11-16T12:21:44.838Z,99416.94
2022-11-16T12:24:26.423Z,99408.97
2022-11-16T12:27:12.982Z,99417.44
2022-11-16T12:29:54.108Z,99409.22
2022-11-16T12:32:37.675Z,99407.28
2022-11-16T12:35:27.553Z,99412.47
2022-11-16T12:38:00.333Z,99410.59
2022-11-16T12:40:33.791Z,99405.38
2022-11-16T12:43:09.335Z,99402.03
2022-11-16T12:45:35.898Z,99401.09
2022-11-16T12:48:17.613Z,99397.44
2022-11-16T12:50:54.260Z,99392.38
2022-11-16T12:53:42.796Z,99392.88
2022-11-16T12:56:17.833Z,99388.91
2022-11-16T12:59:09.078Z,99386.22
2022-11-16T13:01:41.857Z,99372.47
2022-11-16T13:04:21.525Z,99366.44
2022-11-16T13:06:56.136Z,99370.66
2022-11-16T13:09:30.868Z,99378.66
2022-11-16T13:12:00.633Z,99368.69
2022-11-16T13:14:34.281Z,99361.28
2022-11-16T13:17:03.156Z,99363.47
2022-11-16T13:19:30.417Z,99357.13
2022-11-16T13:22:06.134Z,99354.59
2022-11-16T13:24:58.691Z,99349.47
2022-11-16T13:27:31.530Z,99347.50
2022-11-16T13:30:13.839Z,99354.19
2022-11-16T13:32:46.765Z,99349.38
2022-11-16T13:35:18.535Z,99339.66
2022-11-16T13:37:49.699Z,99342.78
2022-11-16T13:40:23.992Z,99339.84
2022-11-16T13:42:59.848Z,99342.69
2022-11-16T13:45:33.081Z,99338.38
2022-11-16T13:48:04.122Z,99343.88
2022-11-16T13:50:37.817Z,99338.94
2022-11-16T13:55:58.356Z,99334.72
2022-11-16T13:58:26.995Z,99335.22
2022-11-16T14:01:07.422Z,99328.88
2022-11-16T14:03:39.642Z,99324.59
2022-11-16T14:06:24.515Z,99321.47
2022-11-16T14:08:51.943Z,99321.78
2022-11-16T14:11:39.148Z,99320.34
2022-11-16T14:14:10.647Z,99321.75
2022-11-16T14:16:49.134Z,99327.16
2022-11-16T14:19:47.408Z,99328.41
2022-11-16T14:22:39.680Z,99316.47
2022-11-16T14:25:37.672Z,99322.97
2022-11-16T14:28:13.628Z,99322.59
2022-11-16T14:31:00.973Z,99323.09
2022-11-16T14:33:33.956Z,99318.97
2022-11-16T14:36:04.094Z,99313.16
2022-11-16T14:38:34.097Z,99324.56
2022-11-16T14:41:07.357Z,99315.69
2022-11-16T14:43:41.482Z,99312.88
2022-11-16T14:46:33.990Z,99317.63
2022-11-16T14:49:02.408Z,99320.16
2022-11-16T14:51:35.408Z,99319.06
2022-11-16T14:54:33.647Z,99314.16
2022-11-16T14:57:06.691Z,99319.84
2022-11-16T14:59:33.364Z,99310.47
2022-11-16T15:02:12.761Z,99318.19
2022-11-16T15:04:39.503Z,99310.63
2022-11-16T15:07:07.322Z,99296.88
2022-11-16T15:09:37.774Z,99303.47
2022-11-16T15:12:24.903Z,99304.63
2022-11-16T15:14:54.750Z,99303.13
2022-11-16T15:17:27.239Z,99303.78
2022-11-16T15:19:59.162Z,99299.47
2022-11-16T15:22:41.772Z,99288.31
2022-11-16T15:25:32.176Z,99287.94
2022-11-16T15:28:04.426Z,99281.19
2022-11-16T15:30:34.331Z,99278.00
2022-11-16T15:33:08.869Z,99280.38
2022-11-16T15:35:37.661Z,99275.25
2022-11-16T15:38:16.711Z,99275.25
2022-11-16T15:41:04.359Z,99277.44
2022-11-16T15:43:49.613Z,99272.66
2022-11-16T15:46:24.694Z,99281.84
2022-11-16T15:48:52.255Z,99277.44
2022-11-16T15:51:23.598Z,99274.94
2022-11-16T15:53:51.612Z,99273.84
2022-11-16T15:56:27.076Z,99277.94
2022-11-16T15:58:55.536Z,99256.53
2022-11-16T16:01:22.992Z,99260.91
2022-11-16T16:04:05.107Z,99243.00
2022-11-16T16:06:50.142Z,99232.66
2022-11-16T16:09:33.684Z,99238.44
2022-11-16T16:12:26.769Z,99243.00
2022-11-16T16:15:23.812Z,99258.63
2022-11-16T16:17:50.974Z,99249.13
2022-11-16T16:20:20.630Z,99250.31
2022-11-16T16:22:48.800Z,99257.97
2022-11-16T16:25:30.417Z,99264.34
2022-11-16T16:27:59.613Z,99257.16
2022-11-16T16:30:30.579Z,99253.19
2022-11-16T16:32:58.113Z,99254.09
2022-11-16T16:35:25.877Z,99257.75
2022-11-16T16:37:59.190Z,99250.41
2022-11-16T16:40:26.426Z,99242.63
2022-11-16T16:42:54.839Z,99247.44
2022-11-16T16:45:32.585Z,99240.66
2022-11-16T16:47:59.282Z,99236.28
2022-11-16T16:50:25.870Z,99238.84
2022-11-16T16:52:52.468Z,99237.16
2022-11-16T16:55:19.028Z,99233.88
2022-11-16T16:57:45.642Z,99233.56
2022-11-16T17:00:12.720Z,99231.28
2022-11-16T17:02:39.278Z,99227.69
2022-11-16T17:05:06.303Z,99224.00
2022-11-16T17:07:32.983Z,99220.41
2022-11-16T17:09:59.773Z,99220.34
2022-11-16T17:12:26.422Z,99214.63
2022-11-16T17:14:53.191Z,99215.44
2022-11-16T17:17:20.047Z,99216.75
2022-11-16T17:19:46.948Z,99213.56
2022-11-16T17:22:14.248Z,99198.63
2022-11-16T17:24:40.982Z,99203.50
2022-11-16T17:27:07.552Z,99205.97
2022-11-16T17:29:34.081Z,99195.50
2022-11-16T17:32:00.697Z,99197.16
2022-11-16T17:34:27.495Z,99196.38
2022-11-16T17:36:55.782Z,99189.84
2022-11-16T17:39:23.535Z,99189.00
2022-11-16T17:41:51.131Z,99190.50
2022-11-16T17:44:21.584Z,99183.59
2022-11-16T17:46:48.882Z,99180.00
2022-11-16T17:49:15.622Z,99181.59
2022-11-16T17:51:42.520Z,99177.59
2022-11-16T17:54:09.221Z,99175.53
2022-11-16T17:56:35.806Z,99171.50
2022-11-16T17:59:02.561Z,99170.13
2022-11-16T18:01:29.586Z,99164.78
2022-11-16T18:03:58.366Z,99158.81
2022-11-16T18:06:25.429Z,99164.03
2022-11-16T18:08:52.673Z,99158.66
2022-11-16T18:11:21.827Z,99155.47
2022-11-16T18:14:00.194Z,99155.56
2022-11-16T18:16:32.430Z,99148.91
2022-11-16T18:19:05.241Z,99154.28
2022-11-16T18:21:33.788Z,99148.81
2022-11-16T18:24:00.525Z,99155.59
2022-11-16T18:26:27.687Z,99152.31
2022-11-16T18:28:54.479Z,99150.50
2022-11-16T18:31:23.567Z,99141.94
2022-11-16T18:33:51.136Z,99143.75
2022-11-16T18:36:22.438Z,99147.94
2022-11-16T18:38:49.072Z,99148.53
2022-11-16T18:41:19.829Z,99144.50
2022-11-16T18:43:55.540Z,99151.09
2022-11-16T18:46:32.746Z,99134.34
2022-11-16T18:49:00.065Z,99135.94
2022-11-16T18:51:27.827Z,99132.75
2022-11-16T18:53:54.708Z,99133.56
2022-11-16T18:56:21.804Z,99123.72
2022-11-16T18:58:51.262Z,99126.41
2022-11-16T19:01:22.031Z,99125.00
2022-11-16T19:03:49.113Z,99120.41
2022-11-16T19:06:17.564Z,99125.19
2022-11-16T19:08:47.819Z,99120.41
2022-11-16T19:11:16.994Z,99115.88
2022-11-16T19:13:44.607Z,99116.84
2022-11-16T19:16:13.286Z,99115.88
2022-11-16T19:18:40.239Z,99118.25
2022-11-16T19:21:12.497Z,99114.66
2022-11-16T19:23:44.424Z,99117.84
2022-11-16T19:26:12.888Z,99110.88
2022-11-16T19:28:44.373Z,99114.25
2022-11-16T19:31:11.080Z,99109.66
2022-11-16T19:33:38.496Z,99110.28
2022-11-16T19:36:11.230Z,99112.97
2022-11-16T19:38:38.382Z,99111.19
2022-11-16T19:41:06.350Z,99115.25
2022-11-16T19:43:34.467Z,99119.53
2022-11-16T19:46:03.508Z,99118.44
2022-11-16T19:48:33.526Z,99120.63
2022-11-16T19:51:04.135Z,99123.81
2022-11-16T19:53:32.386Z,99114.59
2022-11-16T19:55:59.263Z,99120.63
2022-11-16T19:58:25.899Z,99111.47
2022-11-16T20:00:52.818Z,99099.25
2022-11-16T20:03:19.517Z,99096.78
2022-11-16T20:05:46.243Z,99099.97
2022-11-16T20:08:12.820Z,99097.50
2022-11-16T20:10:39.446Z,99090.84
2022-11-16T20:13:06.268Z,99079.69
2022-11-16T20:15:32.900Z,99070.44
2022-11-16T20:17:59.506Z,99078.78
2022-11-16T20:20:26.147Z,99079.47
2022-11-16T20:22:53.573Z,99081.78
2022-11-16T20:25:20.152Z,99082.78
2022-11-16T20:27:47.046Z,99087.06
2022-11-16T20:30:13.720Z,99078.69
2022-11-16T20:32:40.441Z,99086.28
2022-11-16T20:35:07.382Z,99074.22
2022-11-16T20:37:33.980Z,99069.84
2022-11-16T20:40:00.650Z,99068.94
2022-11-16T20:42:27.303Z,99058.63
2022-11-16T20:44:54.023Z,99059.09
2022-11-16T20:47:20.900Z,99062.56
2022-11-16T20:49:47.436Z,99060.88
2022-11-16T20:52:14.080Z,99058.75
2022-11-16T20:54:40.686Z,99055.16
2022-11-16T20:57:07.245Z,99047.97
2022-11-16T20:59:33.920Z,99048.16
2022-11-16T21:02:00.862Z,99047.66
2022-11-16T21:04:27.485Z,99044.19
2022-11-16T21:06:54.162Z,99046.28
2022-11-16T21:09:22.860Z,99040.34
2022-11-16T21:12:08.567Z,99036.66
2022-11-16T21:14:35.295Z,99034.50
2022-11-16T21:17:01.911Z,99039.50
2022-11-16T21:19:28.735Z,99029.97
2022-11-16T21:21:55.372Z,99033.66
2022-11-16T21:24:24.615Z,99029.91
2022-11-16T21:26:52.292Z,99022.56
2022-11-16T21:29:22.186Z,99019.06
2022-11-16T21:31:48.968Z,99020.16
2022-11-16T21:34:15.640Z,99021.16
2022-11-16T21:36:42.249Z,99024.03
2022-11-16T21:39:08.898Z,99024.22
2022-11-16T21:41:35.463Z,99018.53
2022-11-16T21:44:02.168Z,99013.63
2022-11-16T21:46:28.764Z,99005.09
2022-11-16T21:48:56.679Z,99008.41
2022-11-16T21:51:26.693Z,99005.72
2022-11-16T21:53:53.496Z,99002.41
2022-11-16T21:56:24.150Z,99002.41
2022-11-16T21:58:52.943Z,98998.19
2022-11-16T22:01:20.595Z,99001.19
2022-11-16T22:03:48.397Z,98998.81
2022-11-16T22:06:35.116Z,99000.69
2022-11-16T22:09:01.956Z,98991.50
2022-11-16T22:11:28.968Z,98989.69
2022-11-16T22:13:55.643Z,98983.34
2022-11-16T22:16:25.025Z,98989.09
2022-11-16T22:18:51.598Z,98983.28
2022-11-16T22:21:18.507Z,98985.69
2022-11-16T22:23:45.407Z,98983.44
2022-11-16T22:26:15.825Z,98979.28
2022-11-16T22:28:42.475Z,98985.59
2022-11-16T22:31:14.890Z,98982.44
2022-11-16T22:33:41.888Z,98972.00
2022-11-16T22:36:11.744Z,98965.78
2022-11-16T22:38:38.394Z,98969.13
2022-11-16T22:41:05.213Z,98969.13
2022-11-16T22:43:32.689Z,98963.88
2022-11-16T22:46:01.368Z,98965.38
2022-11-16T22:48:39.482Z,98964.38
2022-11-16T22:51:18.689Z,98958.44
2022-11-16T22:53:45.902Z,98947.38
2022-11-16T22:56:13.272Z,98944.47
2022-11-16T22:58:40.172Z,98935.34
2022-11-16T23:01:08.605Z,98940.91
2022-11-16T23:03:36.496Z,98931.47
2022-11-16T23:06:04.430Z,98925.41
2022-11-16T23:08:32.138Z,98924.59
2022-11-16T23:11:18.242Z,98915.16
2022-11-16T23:14:03.948Z,98923.00
2022-11-16T23:16:30.786Z,98925.03
2022-11-16T23:18:57.638Z,98917.06
2022-11-16T23:21:43.707Z,98908.44
2022-11-16T23:24:30.412Z,98902.66
2022-11-16T23:27:17.092Z,98902.56
2022-11-16T23:29:44.126Z,98899.75
2022-11-16T23:32:10.762Z,98901.09
2022-11-16T23:34:37.453Z,98899.41
2022-11-16T23:37:08.186Z,98896.44
2022-11-16T23:39:34.909Z,98890.66
2022-11-16T23:42:20.354Z,98867.72
2022-11-16T23:44:46.968Z,98867.63
2022-11-16T23:47:13.742Z,98859.28
2022-11-16T23:49:40.339Z,98864.59
2022-11-16T23:52:07.361Z,98842.63
2022-11-16T23:54:33.921Z,98839.63
2022-11-16T23:57:00.739Z,98839.53
2022-11-16T23:59:27.435Z,98830.19
